Time;durP1;ratioP1;P1;durP2;ratioP2;P2;SDS_P1;SDS_P2;PMS_P1;PMS_P2;Temp;Humidity;BMP_temperature;BMP_pressure;BME280_temperature;BME280_humidity;BME280_pressure;Samples;Min_cycle;Max_cycle;Signal;HPM_P1;HPM_P2
2023/07/21 00:01:19;;;;;;;886.43;722.10;;;;;;;;;;5024631;28;20435;-67
2023/07/21 00:03:46;;;;;;;711.57;636.00;;;;;;;;;;5030281;28;20429;-68
2023/07/21 00:06:17;;;;;;;803.92;715.05;;;;;;;;;;5031892;28;20493;-67
2023/07/21 00:08:44;;;;;;;833.97;719.10;;;;;;;;;;5033172;28;20425;-68
2023/07/21 00:11:12;;;;;;;804.92;719.42;;;;;;;;;;5027305;28;20518;-67
2023/07/21 00:13:39;;;;;;;820.72;719.35;;;;;;;;;;5024785;28;20437;-67
2023/07/21 00:16:06;;;;;;;781.60;704.85;;;;;;;;;;5036244;28;22460;-66
2023/07/21 00:18:35;;;;;;;842.42;719.88;;;;;;;;;;5029776;28;21190;-66
2023/07/21 00:21:05;;;;;;;812.73;722.27;;;;;;;;;;5023528;28;20465;-67
2023/07/21 00:23:36;;;;;;;808.47;725.15;;;;;;;;;;5031032;28;20823;-66
2023/07/21 00:26:04;;;;;;;830.83;727.40;;;;;;;;;;5024331;28;20944;-66
2023/07/21 00:28:33;;;;;;;935.30;720.87;;;;;;;;;;5032364;28;20994;-68
2023/07/21 00:31:03;;;;;;;947.43;722.00;;;;;;;;;;5029849;28;20528;-66
2023/07/21 00:33:31;;;;;;;797.78;716.13;;;;;;;;;;5021806;28;20431;-67
2023/07/21 00:35:58;;;;;;;798.40;719.38;;;;;;;;;;5009780;28;20437;-66
2023/07/21 00:38:25;;;;;;;917.60;725.42;;;;;;;;;;5029985;28;20906;-67
2023/07/21 00:40:53;;;;;;;955.15;722.88;;;;;;;;;;5029386;28;20515;-66
2023/07/21 00:43:20;;;;;;;872.55;729.25;;;;;;;;;;5028988;28;20432;-67
2023/07/21 00:45:47;;;;;;;960.08;726.30;;;;;;;;;;5029859;28;20510;-68
2023/07/21 00:48:16;;;;;;;963.28;723.83;;;;;;;;;;5033573;28;20438;-66
2023/07/21 00:50:48;;;;;;;953.85;717.25;;;;;;;;;;5015308;28;20464;-66
2023/07/21 00:53:17;;;;;;;941.58;698.17;;;;;;;;;;5027871;28;20431;-66
2023/07/21 00:55:47;;;;;;;932.38;697.85;;;;;;;;;;5024179;28;20919;-66
2023/07/21 00:58:15;;;;;;;952.70;717.35;;;;;;;;;;5026758;28;20444;-66
2023/07/21 01:00:42;;;;;;;930.25;717.42;;;;;;;;;;5012676;28;20501;-66
2023/07/21 01:03:10;;;;;;;949.30;721.83;;;;;;;;;;5020065;28;20427;-66
2023/07/21 01:05:41;;;;;;;957.37;721.00;;;;;;;;;;5024708;28;20423;-66
2023/07/21 01:08:09;;;;;;;954.10;722.33;;;;;;;;;;5016549;28;20503;-66
2023/07/21 01:10:40;;;;;;;959.38;726.70;;;;;;;;;;5036691;28;20427;-66
2023/07/21 01:13:09;;;;;;;930.20;732.63;;;;;;;;;;5026343;28;20431;-66
2023/07/21 01:15:38;;;;;;;930.40;732.25;;;;;;;;;;5035981;28;20945;-66
2023/07/21 01:18:07;;;;;;;953.17;731.90;;;;;;;;;;5034333;28;20433;-66
2023/07/21 01:20:36;;;;;;;945.72;719.75;;;;;;;;;;5029663;28;20802;-66
2023/07/21 01:23:15;;;;;;;952.40;722.42;;;;;;;;;;5014489;28;20918;-66
2023/07/21 01:25:46;;;;;;;953.60;724.63;;;;;;;;;;5024363;28;20429;-67
2023/07/21 01:28:13;;;;;;;925.90;720.92;;;;;;;;;;5013446;28;20445;-67
2023/07/21 01:30:41;;;;;;;936.92;720.97;;;;;;;;;;5007621;28;20435;-67
2023/07/21 01:33:09;;;;;;;923.40;668.13;;;;;;;;;;5023422;28;20443;-69
2023/07/21 01:35:37;;;;;;;928.05;673.50;;;;;;;;;;5030832;28;20428;-67
2023/07/21 01:38:04;;;;;;;928.25;676.00;;;;;;;;;;5027823;28;20513;-67
2023/07/21 01:40:36;;;;;;;931.17;679.78;;;;;;;;;;5027582;28;20465;-67
2023/07/21 01:43:03;;;;;;;929.67;673.45;;;;;;;;;;5037658;28;20874;-67
2023/07/21 01:45:37;;;;;;;928.78;674.83;;;;;;;;;;5033643;28;20539;-68
2023/07/21 01:48:04;;;;;;;924.80;667.00;;;;;;;;;;5028052;28;20427;-67
2023/07/21 01:50:34;;;;;;;928.00;667.40;;;;;;;;;;5027284;28;20444;-67
2023/07/21 01:53:04;;;;;;;929.05;670.42;;;;;;;;;;5023606;28;20918;-67
2023/07/21 01:55:36;;;;;;;933.15;673.92;;;;;;;;;;5035845;28;20429;-68
2023/07/21 01:58:06;;;;;;;932.03;675.55;;;;;;;;;;5027749;28;20939;-67
2023/07/21 02:00:34;;;;;;;935.95;669.65;;;;;;;;;;5027499;28;20587;-67
2023/07/21 02:03:17;;;;;;;931.40;670.28;;;;;;;;;;5026016;28;20437;-69
2023/07/21 02:05:46;;;;;;;917.60;648.50;;;;;;;;;;5027627;28;20425;-67
2023/07/21 02:08:17;;;;;;;916.90;647.20;;;;;;;;;;5031198;28;21006;-67
2023/07/21 02:10:45;;;;;;;907.80;636.15;;;;;;;;;;5013032;28;20436;-66
2023/07/21 02:13:14;;;;;;;911.88;640.05;;;;;;;;;;5026584;28;20458;-68
2023/07/21 02:15:44;;;;;;;922.58;648.05;;;;;;;;;;5029259;28;20439;-68
2023/07/21 02:18:14;;;;;;;923.42;647.80;;;;;;;;;;5017261;28;20945;-67
2023/07/21 02:20:41;;;;;;;927.90;657.03;;;;;;;;;;5042287;28;20488;-68
2023/07/21 02:23:08;;;;;;;918.67;641.30;;;;;;;;;;5029996;28;20523;-69
2023/07/21 02:25:36;;;;;;;921.47;647.33;;;;;;;;;;5030765;28;20512;-66
2023/07/21 02:28:03;;;;;;;920.27;646.57;;;;;;;;;;5029754;28;20491;-68
2023/07/21 02:30:30;;;;;;;921.55;648.75;;;;;;;;;;5026517;28;20454;-67
2023/07/21 02:33:00;;;;;;;921.30;649.45;;;;;;;;;;5023974;28;20480;-67
2023/07/21 02:35:28;;;;;;;924.30;653.05;;;;;;;;;;5028856;28;20435;-67
2023/07/21 02:37:58;;;;;;;922.53;655.03;;;;;;;;;;5041215;28;20448;-68
2023/07/21 02:40:25;;;;;;;925.83;655.85;;;;;;;;;;5036012;28;20430;-67
2023/07/21 02:42:52;;;;;;;919.97;652.92;;;;;;;;;;5033488;28;20434;-67
2023/07/21 02:45:19;;;;;;;926.00;656.65;;;;;;;;;;5030161;28;20843;-67
2023/07/21 02:47:46;;;;;;;919.25;648.55;;;;;;;;;;5038502;28;20508;-67
2023/07/21 02:50:15;;;;;;;925.75;658.58;;;;;;;;;;5035464;28;20436;-67
2023/07/21 02:52:42;;;;;;;920.60;654.75;;;;;;;;;;5036309;28;20431;-69
2023/07/21 02:55:10;;;;;;;927.95;669.63;;;;;;;;;;5026235;28;20457;-68
2023/07/21 02:57:37;;;;;;;931.45;669.30;;;;;;;;;;5033253;28;20433;-67
2023/07/21 03:00:04;;;;;;;935.03;673.92;;;;;;;;;;5033294;28;20441;-67
2023/07/21 03:02:34;;;;;;;925.50;657.60;;;;;;;;;;5031499;28;20437;-67
2023/07/21 03:05:05;;;;;;;926.70;655.85;;;;;;;;;;5024194;28;20445;-67
2023/07/21 03:07:32;;;;;;;915.35;640.22;;;;;;;;;;5040200;28;20803;-67
2023/07/21 03:10:00;;;;;;;912.22;632.47;;;;;;;;;;5039495;28;20429;-68
2023/07/21 03:12:27;;;;;;;916.95;642.38;;;;;;;;;;5032226;28;20436;-67
2023/07/21 03:14:56;;;;;;;915.95;641.17;;;;;;;;;;5029602;28;20435;-67
2023/07/21 03:17:24;;;;;;;920.97;649.97;;;;;;;;;;5027953;28;20487;-67
2023/07/21 03:19:51;;;;;;;914.03;635.50;;;;;;;;;;5030638;28;20535;-67
2023/07/21 03:22:18;;;;;;;925.17;650.85;;;;;;;;;;5028677;28;20439;-66
2023/07/21 03:24:52;;;;;;;923.87;647.10;;;;;;;;;;5027446;28;20429;-68
2023/07/21 03:27:20;;;;;;;924.63;651.67;;;;;;;;;;5013809;28;20573;-67
2023/07/21 03:29:51;;;;;;;931.97;661.22;;;;;;;;;;5032028;28;20813;-67
2023/07/21 03:32:18;;;;;;;936.97;665.63;;;;;;;;;;5023297;28;20447;-67
2023/07/21 03:34:54;;;;;;;939.17;668.70;;;;;;;;;;5023464;28;20463;-68
2023/07/21 03:37:28;;;;;;;934.40;662.30;;;;;;;;;;5033810;28;20974;-67
2023/07/21 03:39:55;;;;;;;946.13;675.65;;;;;;;;;;5038495;28;20432;-67
2023/07/21 03:42:23;;;;;;;941.20;675.50;;;;;;;;;;5033648;28;20479;-67
2023/07/21 03:44:51;;;;;;;916.55;646.55;;;;;;;;;;5029171;28;20896;-67
2023/07/21 03:47:19;;;;;;;916.05;645.97;;;;;;;;;;5027939;28;20450;-67
2023/07/21 03:49:47;;;;;;;914.28;643.72;;;;;;;;;;5035525;28;20431;-67
2023/07/21 03:52:16;;;;;;;921.08;650.80;;;;;;;;;;5031625;28;20429;-67
2023/07/21 03:54:43;;;;;;;922.33;652.17;;;;;;;;;;5038227;28;20440;-67
2023/07/21 03:57:10;;;;;;;920.92;652.45;;;;;;;;;;5027754;28;20977;-67
2023/07/21 03:59:38;;;;;;;916.00;648.15;;;;;;;;;;5029955;28;20506;-67
2023/07/21 04:02:06;;;;;;;913.17;640.30;;;;;;;;;;5026797;28;20439;-68
2023/07/21 04:04:33;;;;;;;921.33;644.53;;;;;;;;;;5028615;28;20435;-69
2023/07/21 04:07:05;;;;;;;920.08;646.38;;;;;;;;;;5023974;28;20565;-67
2023/07/21 04:09:32;;;;;;;918.60;645.00;;;;;;;;;;5029509;28;21151;-67
2023/07/21 04:11:59;;;;;;;926.22;653.40;;;;;;;;;;5015056;28;20452;-67
2023/07/21 04:14:26;;;;;;;923.95;652.58;;;;;;;;;;5034137;28;20947;-67
2023/07/21 04:16:54;;;;;;;924.23;658.60;;;;;;;;;;5028965;28;20797;-67
2023/07/21 04:19:21;;;;;;;923.08;656.53;;;;;;;;;;5031794;28;20472;-67
2023/07/21 04:21:50;;;;;;;910.60;639.97;;;;;;;;;;5025947;28;20429;-67
2023/07/21 04:24:18;;;;;;;895.42;630.45;;;;;;;;;;5035066;28;20452;-67
2023/07/21 04:26:45;;;;;;;900.65;633.80;;;;;;;;;;5014076;28;20526;-67
2023/07/21 04:29:12;;;;;;;917.00;659.53;;;;;;;;;;5025843;28;20525;-67
2023/07/21 04:31:56;;;;;;;901.65;641.67;;;;;;;;;;5025603;28;20431;-68
2023/07/21 04:34:23;;;;;;;912.58;650.50;;;;;;;;;;5031007;28;20460;-67
2023/07/21 04:36:52;;;;;;;908.70;649.38;;;;;;;;;;5031023;28;20480;-67
2023/07/21 04:39:20;;;;;;;921.53;658.63;;;;;;;;;;5020644;28;21000;-66
2023/07/21 04:41:47;;;;;;;916.80;660.63;;;;;;;;;;5033538;28;20425;-67
2023/07/21 04:44:15;;;;;;;920.65;666.58;;;;;;;;;;5034113;28;20834;-67
2023/07/21 04:46:46;;;;;;;908.13;652.30;;;;;;;;;;5032830;28;20427;-68
2023/07/21 04:49:13;;;;;;;911.88;659.17;;;;;;;;;;5029278;28;20514;-67
2023/07/21 04:51:41;;;;;;;912.58;661.30;;;;;;;;;;5032797;28;20459;-67
2023/07/21 04:54:08;;;;;;;899.47;651.70;;;;;;;;;;5033773;28;20842;-67
2023/07/21 04:56:35;;;;;;;874.75;637.92;;;;;;;;;;5025949;28;20500;-67
2023/07/21 04:59:02;;;;;;;863.60;622.27;;;;;;;;;;5022973;28;20572;-67
2023/07/21 05:01:32;;;;;;;851.47;599.70;;;;;;;;;;5021009;28;20478;-67
2023/07/21 05:04:02;;;;;;;864.53;614.65;;;;;;;;;;5029025;28;20497;-67
2023/07/21 05:06:30;;;;;;;844.80;587.20;;;;;;;;;;5028510;28;20423;-67
2023/07/21 05:09:00;;;;;;;857.65;612.13;;;;;;;;;;5009604;28;20431;-67
2023/07/21 05:11:29;;;;;;;849.28;584.83;;;;;;;;;;5027457;28;20506;-67
2023/07/21 05:13:58;;;;;;;844.53;579.47;;;;;;;;;;5027926;28;20435;-68
2023/07/21 05:16:25;;;;;;;846.03;578.15;;;;;;;;;;5026941;28;20518;-67
2023/07/21 05:18:53;;;;;;;854.22;596.50;;;;;;;;;;5030911;28;20988;-67
2023/07/21 05:21:20;;;;;;;843.13;581.05;;;;;;;;;;5027711;28;20429;-68
2023/07/21 05:23:50;;;;;;;834.03;579.47;;;;;;;;;;5027719;28;20427;-69
2023/07/21 05:26:17;;;;;;;843.78;601.45;;;;;;;;;;5013063;28;20520;-68
2023/07/21 05:28:46;;;;;;;834.23;569.70;;;;;;;;;;5027818;28;20806;-68
2023/07/21 05:31:13;;;;;;;840.22;581.08;;;;;;;;;;5038440;28;20441;-68
2023/07/21 05:33:41;;;;;;;839.92;579.30;;;;;;;;;;5030862;28;20439;-68
2023/07/21 05:36:10;;;;;;;853.47;600.05;;;;;;;;;;5018594;28;20432;-68
2023/07/21 05:38:40;;;;;;;845.75;588.53;;;;;;;;;;5025924;28;20435;-68
2023/07/21 05:41:07;;;;;;;857.10;596.40;;;;;;;;;;5024584;28;20460;-68
2023/07/21 05:43:34;;;;;;;872.95;614.97;;;;;;;;;;5029724;28;20675;-68
2023/07/21 05:46:07;;;;;;;874.42;603.08;;;;;;;;;;5023462;28;20492;-68
2023/07/21 05:48:35;;;;;;;877.05;605.88;;;;;;;;;;5030735;28;20493;-68
2023/07/21 05:51:02;;;;;;;867.45;584.33;;;;;;;;;;5017397;28;20504;-69
2023/07/21 05:53:29;;;;;;;857.60;576.00;;;;;;;;;;5034074;28;20439;-68
2023/07/21 05:55:56;;;;;;;855.40;573.80;;;;;;;;;;5031025;28;20869;-67
2023/07/21 05:58:23;;;;;;;875.65;597.05;;;;;;;;;;5039639;28;20428;-68
2023/07/21 06:00:51;;;;;;;873.75;608.58;;;;;;;;;;5034131;28;20509;-68
2023/07/21 06:03:18;;;;;;;848.15;585.25;;;;;;;;;;5028711;28;20521;-67
2023/07/21 06:05:47;;;;;;;855.90;603.83;;;;;;;;;;5037667;28;20435;-68
2023/07/21 06:08:18;;;;;;;853.20;606.03;;;;;;;;;;5035004;28;20486;-68
2023/07/21 06:10:45;;;;;;;857.63;607.38;;;;;;;;;;5029671;28;20430;-68
2023/07/21 06:13:13;;;;;;;848.42;592.40;;;;;;;;;;5030189;28;20561;-67
2023/07/21 06:15:40;;;;;;;852.65;595.30;;;;;;;;;;5026614;28;20463;-67
2023/07/21 06:18:07;;;;;;;865.72;621.38;;;;;;;;;;5032316;28;20470;-68
2023/07/21 06:20:34;;;;;;;874.57;635.13;;;;;;;;;;5032277;28;21027;-68
2023/07/21 06:23:05;;;;;;;861.88;624.25;;;;;;;;;;5028636;28;20430;-68
2023/07/21 06:25:32;;;;;;;881.53;649.78;;;;;;;;;;5029147;28;20434;-68
2023/07/21 06:27:59;;;;;;;894.63;670.55;;;;;;;;;;5035845;28;20436;-68
2023/07/21 06:30:26;;;;;;;900.42;677.65;;;;;;;;;;5026972;28;20544;-67
2023/07/21 06:33:05;;;;;;;902.97;682.70;;;;;;;;;;5017223;28;20443;-66
2023/07/21 06:35:33;;;;;;;897.72;673.10;;;;;;;;;;5025662;28;20463;-66
2023/07/21 06:38:01;;;;;;;912.13;689.33;;;;;;;;;;5005624;28;20521;-66
2023/07/21 06:40:28;;;;;;;883.97;658.78;;;;;;;;;;5023484;28;20465;-66
2023/07/21 06:42:56;;;;;;;876.92;650.42;;;;;;;;;;5035689;28;20459;-67
2023/07/21 06:45:23;;;;;;;916.65;693.08;;;;;;;;;;5030824;28;20750;-67
2023/07/21 06:47:50;;;;;;;926.78;699.97;;;;;;;;;;5026936;28;20450;-67
2023/07/21 06:50:17;;;;;;;924.67;702.70;;;;;;;;;;5031673;28;20424;-66
2023/07/21 06:52:46;;;;;;;915.10;695.55;;;;;;;;;;5031566;28;20430;-66
2023/07/21 06:55:13;;;;;;;922.15;701.40;;;;;;;;;;5032409;28;20435;-65
2023/07/21 06:57:40;;;;;;;922.87;704.40;;;;;;;;;;5027676;28;20500;-67
2023/07/21 07:00:09;;;;;;;924.67;711.70;;;;;;;;;;5011237;28;20515;-67
2023/07/21 07:02:36;;;;;;;926.90;715.88;;;;;;;;;;5017031;28;20508;-68
2023/07/21 07:05:06;;;;;;;945.37;740.27;;;;;;;;;;5026536;28;20449;-68
2023/07/21 07:07:33;;;;;;;941.72;741.70;;;;;;;;;;5024367;28;22489;-67
2023/07/21 07:10:00;;;;;;;935.10;732.50;;;;;;;;;;5035623;28;20421;-68
2023/07/21 07:12:28;;;;;;;933.30;737.55;;;;;;;;;;5033734;28;20501;-67
2023/07/21 07:14:55;;;;;;;949.47;753.13;;;;;;;;;;5029796;28;20433;-67
2023/07/21 07:17:22;;;;;;;935.70;738.38;;;;;;;;;;5025453;28;20524;-69
2023/07/21 07:19:49;;;;;;;936.50;737.37;;;;;;;;;;5020735;28;20461;-67
2023/07/21 07:22:17;;;;;;;919.33;710.45;;;;;;;;;;5026708;28;20512;-66
2023/07/21 07:24:45;;;;;;;911.88;701.65;;;;;;;;;;5034821;28;20474;-67
2023/07/21 07:27:12;;;;;;;943.63;745.97;;;;;;;;;;5023958;28;20427;-66
2023/07/21 07:29:40;;;;;;;927.10;730.10;;;;;;;;;;5032558;28;20462;-67
2023/07/21 07:32:07;;;;;;;935.47;745.22;;;;;;;;;;5030807;28;20485;-67
2023/07/21 07:34:35;;;;;;;936.63;746.85;;;;;;;;;;5031260;28;20472;-67
2023/07/21 07:37:03;;;;;;;952.57;768.77;;;;;;;;;;5034098;28;20467;-67
2023/07/21 07:39:31;;;;;;;939.13;752.53;;;;;;;;;;5024878;28;20431;-67
2023/07/21 07:41:58;;;;;;;949.75;766.88;;;;;;;;;;5023651;28;20429;-67
2023/07/21 07:44:25;;;;;;;946.22;766.67;;;;;;;;;;5024884;28;20431;-67
2023/07/21 07:46:58;;;;;;;948.85;773.88;;;;;;;;;;5034239;28;20486;-67
2023/07/21 07:49:26;;;;;;;969.17;804.97;;;;;;;;;;5023649;28;20437;-68
2023/07/21 07:51:53;;;;;;;958.25;790.22;;;;;;;;;;5037963;28;20461;-67
2023/07/21 07:54:21;;;;;;;956.50;791.33;;;;;;;;;;5026508;28;20460;-67
2023/07/21 07:56:51;;;;;;;963.72;800.20;;;;;;;;;;5022282;28;20547;-67
2023/07/21 07:59:18;;;;;;;957.80;793.07;;;;;;;;;;5020544;28;20451;-67
2023/07/21 08:01:48;;;;;;;956.37;792.60;;;;;;;;;;5022134;28;20511;-67
2023/07/21 08:04:16;;;;;;;936.72;763.55;;;;;;;;;;5021041;28;20429;-67
2023/07/21 08:06:43;;;;;;;938.45;775.00;;;;;;;;;;5019106;28;20462;-67
2023/07/21 08:09:10;;;;;;;940.75;771.00;;;;;;;;;;5023612;28;20494;-67
2023/07/21 08:11:37;;;;;;;927.03;750.33;;;;;;;;;;5026142;28;20552;-67
2023/07/21 08:14:05;;;;;;;934.90;764.17;;;;;;;;;;5028652;28;20462;-67
2023/07/21 08:16:32;;;;;;;950.08;778.20;;;;;;;;;;5023481;28;20488;-67
2023/07/21 08:19:02;;;;;;;956.17;786.58;;;;;;;;;;5023704;28;20444;-67
2023/07/21 08:21:30;;;;;;;961.47;791.70;;;;;;;;;;5030418;28;20546;-68
2023/07/21 08:23:57;;;;;;;968.30;800.45;;;;;;;;;;5029642;28;20583;-67
2023/07/21 08:26:24;;;;;;;970.38;804.83;;;;;;;;;;5026510;28;20446;-67
2023/07/21 08:28:52;;;;;;;976.88;811.92;;;;;;;;;;5029214;28;20458;-67
2023/07/21 08:31:20;;;;;;;976.90;815.47;;;;;;;;;;5022323;28;20452;-67
2023/07/21 08:33:47;;;;;;;982.35;816.65;;;;;;;;;;5018447;28;20474;-67
2023/07/21 08:36:15;;;;;;;982.03;814.83;;;;;;;;;;5016411;28;20464;-67
2023/07/21 08:38:42;;;;;;;981.20;812.75;;;;;;;;;;5021655;28;20447;-67
2023/07/21 08:41:17;;;;;;;977.67;805.15;;;;;;;;;;5014213;28;20620;-66
2023/07/21 08:43:44;;;;;;;972.03;803.95;;;;;;;;;;5021611;28;20451;-66
2023/07/21 08:46:12;;;;;;;979.70;809.53;;;;;;;;;;5024386;28;20511;-66
2023/07/21 08:48:40;;;;;;;972.50;803.08;;;;;;;;;;5033644;28;20431;-66
2023/07/21 08:51:08;;;;;;;956.17;788.85;;;;;;;;;;5004684;28;20982;-69
2023/07/21 08:53:35;;;;;;;962.95;795.30;;;;;;;;;;5028392;28;20436;-67
2023/07/21 08:56:02;;;;;;;961.17;795.22;;;;;;;;;;5028448;28;20429;-67
2023/07/21 08:58:33;;;;;;;956.03;784.50;;;;;;;;;;5023779;28;20425;-67
2023/07/21 09:01:04;;;;;;;947.00;772.70;;;;;;;;;;5015657;28;20506;-66
2023/07/21 09:03:31;;;;;;;949.08;771.15;;;;;;;;;;5026322;28;20431;-66
2023/07/21 09:06:05;;;;;;;942.67;769.77;;;;;;;;;;5018630;28;20455;-67
2023/07/21 09:08:36;;;;;;;955.30;783.45;;;;;;;;;;5027627;28;20508;-68
2023/07/21 09:11:04;;;;;;;960.83;791.55;;;;;;;;;;5023331;28;20558;-67
2023/07/21 09:13:32;;;;;;;955.35;778.70;;;;;;;;;;5029112;28;20432;-67
2023/07/21 09:16:00;;;;;;;958.72;784.28;;;;;;;;;;5021694;28;20431;-68
2023/07/21 09:18:29;;;;;;;958.47;781.53;;;;;;;;;;5036159;28;20434;-67
2023/07/21 09:20:56;;;;;;;960.53;781.35;;;;;;;;;;5024215;28;20467;-67
2023/07/21 09:23:25;;;;;;;965.65;784.38;;;;;;;;;;5019626;28;20439;-67
2023/07/21 09:25:54;;;;;;;968.72;791.38;;;;;;;;;;5024616;28;20487;-67
2023/07/21 09:28:42;;;;;;;980.30;807.83;;;;;;;;;;5010008;28;20441;-67
2023/07/21 09:31:10;;;;;;;981.23;812.30;;;;;;;;;;5017246;28;20431;-68
2023/07/21 09:33:46;;;;;;;989.60;829.08;;;;;;;;;;5017521;28;20429;-67
2023/07/21 09:36:16;;;;;;;1002.10;844.78;;;;;;;;;;5019198;28;20438;-67
2023/07/21 09:38:47;;;;;;;1008.50;858.70;;;;;;;;;;5023333;28;20977;-68
2023/07/21 09:41:15;;;;;;;1030.38;893.38;;;;;;;;;;5018427;28;20434;-67
2023/07/21 09:43:43;;;;;;;1035.67;908.20;;;;;;;;;;5019178;28;20433;-67
2023/07/21 09:46:10;;;;;;;1045.33;915.17;;;;;;;;;;5027768;28;21105;-67
2023/07/21 09:48:41;;;;;;;1038.10;910.70;;;;;;;;;;5025149;28;20484;-68
2023/07/21 09:51:11;;;;;;;1039.00;908.17;;;;;;;;;;5012403;28;20447;-69
2023/07/21 09:53:40;;;;;;;1034.60;907.65;;;;;;;;;;5024611;28;20514;-68
2023/07/21 09:56:08;;;;;;;1037.18;912.08;;;;;;;;;;5013600;28;20437;-67
2023/07/21 09:58:56;;;;;;;1043.07;920.00;;;;;;;;;;5021658;28;20431;-68
2023/07/21 10:01:25;;;;;;;1047.00;930.72;;;;;;;;;;5014044;28;20835;-67
2023/07/21 10:03:53;;;;;;;1056.63;939.92;;;;;;;;;;5032398;28;20466;-66
2023/07/21 10:06:22;;;;;;;1061.85;944.70;;;;;;;;;;5027076;28;20427;-68
2023/07/21 10:08:51;;;;;;;1069.72;952.30;;;;;;;;;;5025858;28;20427;-67
2023/07/21 10:11:21;;;;;;;1078.13;960.45;;;;;;;;;;5026197;28;20458;-67
2023/07/21 10:13:52;;;;;;;1078.40;960.72;;;;;;;;;;5008229;28;20446;-67
2023/07/21 10:16:24;;;;;;;1070.15;952.85;;;;;;;;;;5025654;28;21020;-67
2023/07/21 10:19:01;;;;;;;1064.10;946.90;;;;;;;;;;5027330;28;20924;-67
2023/07/21 10:21:32;;;;;;;1062.72;945.47;;;;;;;;;;5027611;28;20493;-67
2023/07/21 10:24:03;;;;;;;1052.43;935.90;;;;;;;;;;5011203;28;20435;-67
2023/07/21 10:26:33;;;;;;;1057.45;940.47;;;;;;;;;;5025341;28;20435;-66
2023/07/21 10:29:16;;;;;;;1055.07;938.27;;;;;;;;;;5023507;28;20443;-66
2023/07/21 10:31:57;;;;;;;1059.72;942.70;;;;;;;;;;5027414;28;20430;-67
2023/07/21 10:34:34;;;;;;;1063.95;946.75;;;;;;;;;;5026649;28;20462;-67
2023/07/21 10:37:04;;;;;;;1051.68;934.25;;;;;;;;;;5015345;28;20435;-68
2023/07/21 10:39:37;;;;;;;1046.93;926.20;;;;;;;;;;5033636;28;20433;-67
2023/07/21 10:42:08;;;;;;;1043.68;922.53;;;;;;;;;;5029636;28;20450;-67
2023/07/21 10:44:42;;;;;;;1045.97;919.40;;;;;;;;;;5028581;28;20447;-67
2023/07/21 10:47:12;;;;;;;1043.25;913.65;;;;;;;;;;5039340;28;20482;-67
2023/07/21 10:49:40;;;;;;;1043.55;911.78;;;;;;;;;;5023446;28;20426;-67
2023/07/21 10:52:10;;;;;;;1036.65;898.00;;;;;;;;;;5034303;28;20500;-66
2023/07/21 10:54:40;;;;;;;1033.28;892.25;;;;;;;;;;5030788;28;20509;-66
2023/07/21 10:57:11;;;;;;;1032.95;886.58;;;;;;;;;;5034758;28;20530;-67
2023/07/21 10:59:39;;;;;;;1031.32;881.83;;;;;;;;;;5046838;28;20438;-66
2023/07/21 11:02:07;;;;;;;1026.60;869.42;;;;;;;;;;5030525;28;20513;-67
2023/07/21 11:04:38;;;;;;;1015.40;847.42;;;;;;;;;;5023452;28;20426;-66
2023/07/21 11:07:05;;;;;;;1007.25;836.78;;;;;;;;;;5022564;28;21289;-67
2023/07/21 11:09:43;;;;;;;1001.72;828.95;;;;;;;;;;5027005;28;20439;-67
2023/07/21 11:12:10;;;;;;;1001.70;823.40;;;;;;;;;;5031516;28;20520;-67
2023/07/21 11:14:38;;;;;;;1004.30;822.85;;;;;;;;;;5041110;28;20440;-67
2023/07/21 11:17:05;;;;;;;1008.45;829.28;;;;;;;;;;5025997;28;20745;-66
2023/07/21 11:19:33;;;;;;;1009.03;832.97;;;;;;;;;;5018114;28;20440;-66
2023/07/21 11:22:01;;;;;;;1017.28;848.45;;;;;;;;;;5011059;28;20426;-66
2023/07/21 11:24:29;;;;;;;1022.83;857.55;;;;;;;;;;5026070;28;20486;-66
2023/07/21 11:27:02;;;;;;;1029.53;874.58;;;;;;;;;;5012211;28;20474;-68
2023/07/21 11:29:38;;;;;;;1027.97;872.85;;;;;;;;;;5028202;28;20435;-66
2023/07/21 11:32:18;;;;;;;1022.90;865.40;;;;;;;;;;5028526;28;20442;-65
2023/07/21 11:34:45;;;;;;;1024.20;869.63;;;;;;;;;;5025363;28;20438;-67
2023/07/21 11:37:15;;;;;;;1027.47;875.05;;;;;;;;;;5025569;28;20976;-66
2023/07/21 11:39:42;;;;;;;1027.47;869.08;;;;;;;;;;5034609;28;20488;-66
2023/07/21 11:42:10;;;;;;;1022.65;864.75;;;;;;;;;;5043073;28;20461;-67
2023/07/21 11:44:38;;;;;;;1022.75;862.28;;;;;;;;;;5022827;28;20441;-66
2023/07/21 11:47:09;;;;;;;1017.63;847.35;;;;;;;;;;5024099;28;20446;-67
2023/07/21 11:49:41;;;;;;;1011.78;840.47;;;;;;;;;;5025141;28;20953;-68
2023/07/21 11:52:09;;;;;;;1004.28;837.28;;;;;;;;;;5009850;28;20803;-67
2023/07/21 11:54:38;;;;;;;1009.63;829.22;;;;;;;;;;5008892;28;20440;-67
2023/07/21 11:57:08;;;;;;;1011.22;831.40;;;;;;;;;;5009307;28;20442;-67
2023/07/21 11:59:35;;;;;;;1008.85;830.78;;;;;;;;;;5019769;28;20438;-67
2023/07/21 12:02:04;;;;;;;1014.58;838.17;;;;;;;;;;5030010;28;20430;-67
2023/07/21 12:04:34;;;;;;;1013.80;853.50;;;;;;;;;;5021120;28;20594;-67
2023/07/21 12:07:02;;;;;;;1015.47;850.57;;;;;;;;;;5037915;28;21222;-68
2023/07/21 12:09:31;;;;;;;1005.33;846.75;;;;;;;;;;5048805;28;20429;-67
2023/07/21 12:11:58;;;;;;;996.95;851.10;;;;;;;;;;5033742;28;20463;-67
2023/07/21 12:14:26;;;;;;;1001.67;849.50;;;;;;;;;;5028008;28;20513;-67
2023/07/21 12:16:55;;;;;;;994.87;838.60;;;;;;;;;;5009365;28;20545;-67
2023/07/21 12:19:27;;;;;;;991.97;840.43;;;;;;;;;;5027997;28;20442;-67
2023/07/21 12:21:54;;;;;;;1002.65;841.53;;;;;;;;;;5030018;28;20438;-67
2023/07/21 12:24:22;;;;;;;991.95;831.17;;;;;;;;;;5012072;28;20439;-67
2023/07/21 12:26:52;;;;;;;991.78;826.63;;;;;;;;;;5035422;28;20439;-67
2023/07/21 12:29:19;;;;;;;992.80;820.67;;;;;;;;;;5027112;28;20525;-68
2023/07/21 12:32:04;;;;;;;1002.72;821.45;;;;;;;;;;5022885;28;20435;-69
2023/07/21 12:34:32;;;;;;;1000.13;820.15;;;;;;;;;;5024851;28;20526;-68
2023/07/21 12:36:59;;;;;;;997.05;802.97;;;;;;;;;;5026778;28;20534;-67
2023/07/21 12:39:29;;;;;;;995.83;796.97;;;;;;;;;;5028822;28;20441;-67
2023/07/21 12:41:56;;;;;;;991.60;792.72;;;;;;;;;;5027793;28;20508;-68
2023/07/21 12:44:26;;;;;;;990.33;790.03;;;;;;;;;;5013180;28;20462;-67
2023/07/21 12:46:54;;;;;;;987.33;782.70;;;;;;;;;;5027427;28;20427;-68
2023/07/21 12:49:22;;;;;;;988.08;785.28;;;;;;;;;;5028969;28;20427;-68
2023/07/21 12:51:52;;;;;;;994.10;793.25;;;;;;;;;;5034185;28;20507;-68
2023/07/21 12:54:19;;;;;;;995.13;796.58;;;;;;;;;;5046754;28;20979;-69
2023/07/21 12:56:46;;;;;;;993.63;795.15;;;;;;;;;;5019636;28;20883;-71
2023/07/21 12:59:13;;;;;;;982.13;780.78;;;;;;;;;;5009941;28;20434;-68
2023/07/21 13:01:42;;;;;;;991.85;790.15;;;;;;;;;;5026835;28;20459;-69
2023/07/21 13:04:15;;;;;;;983.85;781.42;;;;;;;;;;5038239;28;20437;-71
2023/07/21 13:06:47;;;;;;;984.63;782.15;;;;;;;;;;5035335;28;20427;-69
2023/07/21 13:09:14;;;;;;;983.20;782.63;;;;;;;;;;5027284;28;20435;-69
2023/07/21 13:11:44;;;;;;;980.80;769.72;;;;;;;;;;5048372;28;20431;-70
2023/07/21 13:14:11;;;;;;;977.33;762.20;;;;;;;;;;5027217;28;20443;-69
2023/07/21 13:16:38;;;;;;;971.03;749.22;;;;;;;;;;5039799;28;20532;-70
2023/07/21 13:19:06;;;;;;;969.25;749.28;;;;;;;;;;5027459;28;20533;-70
2023/07/21 13:21:34;;;;;;;966.00;740.78;;;;;;;;;;5025236;28;20506;-72
2023/07/21 13:24:02;;;;;;;961.03;734.75;;;;;;;;;;5041067;28;20561;-71
2023/07/21 13:26:29;;;;;;;961.58;733.55;;;;;;;;;;5023036;28;20467;-71
2023/07/21 13:28:56;;;;;;;949.67;719.58;;;;;;;;;;5025456;28;20429;-70
2023/07/21 13:31:25;;;;;;;949.08;722.10;;;;;;;;;;5018202;28;20462;-71
2023/07/21 13:33:52;;;;;;;948.45;718.20;;;;;;;;;;5026066;28;20428;-69
2023/07/21 13:36:20;;;;;;;946.13;716.43;;;;;;;;;;5021202;28;20435;-70
2023/07/21 13:38:47;;;;;;;948.03;720.23;;;;;;;;;;5025352;28;20441;-69
2023/07/21 13:41:14;;;;;;;948.90;718.90;;;;;;;;;;5033723;28;20516;-69
2023/07/21 13:43:41;;;;;;;951.15;722.20;;;;;;;;;;5007887;28;20519;-70
2023/07/21 13:46:11;;;;;;;952.05;723.53;;;;;;;;;;5015751;28;20437;-68
2023/07/21 13:48:39;;;;;;;957.03;733.22;;;;;;;;;;5027447;28;20521;-68
2023/07/21 13:51:09;;;;;;;960.78;735.47;;;;;;;;;;4998099;28;20945;-68
2023/07/21 13:53:39;;;;;;;961.72;740.67;;;;;;;;;;5021727;28;20433;-68
2023/07/21 13:56:06;;;;;;;959.88;735.22;;;;;;;;;;5021764;28;20430;-69
2023/07/21 13:58:33;;;;;;;956.60;729.47;;;;;;;;;;5028403;28;21011;-67